ADDS METAR Data INFO
IDs: Format: Raw Decoded Include TAF

Data at: 1031 UTC 23 Feb 2018

KABY 230953Z AUTO 00000KT 8SM CLR 15/14 A3038 RMK AO2 SLP286 T01500144